Terminal Aerodrome Forecast
Issued by NWS

Home | Current Version | Previous Version | Text Only | Print | Product List | Glossary Off
Versions: 1 2 3 4 5 6 7 8 9 10 11 12 13 14 15 16 17 18 19 20

000
FTUS41 KCLE 050500 RRA
TAFFDY
TAF
KFDY 050543Z 0506/0606 25007KT 4SM BR SCT050 OVC100
      TEMPO 0508/0512 1SM BR
     FM051200 13007KT 6SM -SHRA BKN025 OVC070
     FM051500 20008KT P6SM BKN035 OVC070
     FM052300 07007KT P6SM SCT035 BKN120=

USA.gov is the U.S. government's official web portal to all federal, state and local government web resources and services.